sensor_id;sensor_type;location;lat;lon;timestamp;P1;durP1;ratioP1;P2;durP2;ratioP2
2724;SDS011;1370;52.596;13.112;2022-09-09T00:00:58;8.97;;;8.17;;
2724;SDS011;1370;52.596;13.112;2022-09-09T00:03:35;9.80;;;8.90;;
2724;SDS011;1370;52.596;13.112;2022-09-09T00:06:09;7.90;;;7.13;;
2724;SDS011;1370;52.596;13.112;2022-09-09T00:11:07;7.67;;;6.87;;
2724;SDS011;1370;52.596;13.112;2022-09-09T00:13:37;9.03;;;6.93;;
2724;SDS011;1370;52.596;13.112;2022-09-09T00:16:17;7.60;;;6.80;;
2724;SDS011;1370;52.596;13.112;2022-09-09T00:21:33;6.93;;;6.43;;
2724;SDS011;1370;52.596;13.112;2022-09-09T00:24:00;5.47;;;4.97;;
2724;SDS011;1370;52.596;13.112;2022-09-09T00:26:47;5.40;;;5.00;;
2724;SDS011;1370;52.596;13.112;2022-09-09T00:29:28;6.10;;;5.50;;
2724;SDS011;1370;52.596;13.112;2022-09-09T00:32:16;6.43;;;5.90;;
2724;SDS011;1370;52.596;13.112;2022-09-09T00:34:47;6.30;;;5.70;;
2724;SDS011;1370;52.596;13.112;2022-09-09T00:37:20;6.00;;;5.60;;
2724;SDS011;1370;52.596;13.112;2022-09-09T00:39:46;6.70;;;6.10;;
2724;SDS011;1370;52.596;13.112;2022-09-09T00:42:15;6.13;;;5.73;;
2724;SDS011;1370;52.596;13.112;2022-09-09T00:44:59;7.00;;;5.77;;
2724;SDS011;1370;52.596;13.112;2022-09-09T00:50:20;6.27;;;5.83;;
2724;SDS011;1370;52.596;13.112;2022-09-09T00:53:13;7.60;;;5.83;;
2724;SDS011;1370;52.596;13.112;2022-09-09T00:56:07;6.43;;;5.93;;
2724;SDS011;1370;52.596;13.112;2022-09-09T00:58:37;7.70;;;7.00;;
2724;SDS011;1370;52.596;13.112;2022-09-09T01:01:07;6.13;;;5.63;;
2724;SDS011;1370;52.596;13.112;2022-09-09T01:03:37;10.17;;;6.73;;
2724;SDS011;1370;52.596;13.112;2022-09-09T01:06:17;7.53;;;7.03;;
2724;SDS011;1370;52.596;13.112;2022-09-09T01:16:50;6.43;;;5.93;;
2724;SDS011;1370;52.596;13.112;2022-09-09T01:19:37;6.07;;;5.60;;
2724;SDS011;1370;52.596;13.112;2022-09-09T01:22:20;7.70;;;7.00;;
2724;SDS011;1370;52.596;13.112;2022-09-09T01:27:35;6.30;;;5.80;;
2724;SDS011;1370;52.596;13.112;2022-09-09T01:30:01;6.47;;;5.97;;
2724;SDS011;1370;52.596;13.112;2022-09-09T01:35:13;6.40;;;5.83;;
2724;SDS011;1370;52.596;13.112;2022-09-09T01:37:43;6.87;;;6.30;;
2724;SDS011;1370;52.596;13.112;2022-09-09T01:40:08;5.77;;;5.33;;
2724;SDS011;1370;52.596;13.112;2022-09-09T01:42:34;6.67;;;6.07;;
2724;SDS011;1370;52.596;13.112;2022-09-09T01:44:59;7.00;;;6.43;;
2724;SDS011;1370;52.596;13.112;2022-09-09T01:47:24;6.63;;;6.03;;
2724;SDS011;1370;52.596;13.112;2022-09-09T01:49:50;5.43;;;5.10;;
2724;SDS011;1370;52.596;13.112;2022-09-09T01:52:15;5.47;;;5.13;;
2724;SDS011;1370;52.596;13.112;2022-09-09T01:54:40;7.13;;;6.60;;
2724;SDS011;1370;52.596;13.112;2022-09-09T01:57:08;6.17;;;5.77;;
2724;SDS011;1370;52.596;13.112;2022-09-09T02:00:01;5.70;;;5.30;;
2724;SDS011;1370;52.596;13.112;2022-09-09T02:08:26;7.00;;;6.30;;
2724;SDS011;1370;52.596;13.112;2022-09-09T02:11:07;10.17;;;6.43;;
2724;SDS011;1370;52.596;13.112;2022-09-09T02:13:37;6.47;;;6.00;;
2724;SDS011;1370;52.596;13.112;2022-09-09T02:21:50;6.80;;;6.30;;
2724;SDS011;1370;52.596;13.112;2022-09-09T02:24:17;6.50;;;6.00;;
2724;SDS011;1370;52.596;13.112;2022-09-09T02:26:42;6.57;;;6.07;;
2724;SDS011;1370;52.596;13.112;2022-09-09T02:29:19;6.33;;;5.93;;
2724;SDS011;1370;52.596;13.112;2022-09-09T02:31:48;6.93;;;6.33;;
2724;SDS011;1370;52.596;13.112;2022-09-09T02:34:14;8.30;;;6.30;;
2724;SDS011;1370;52.596;13.112;2022-09-09T02:36:43;7.33;;;6.73;;
2724;SDS011;1370;52.596;13.112;2022-09-09T02:39:08;6.40;;;5.90;;
2724;SDS011;1370;52.596;13.112;2022-09-09T02:41:35;8.60;;;6.00;;
2724;SDS011;1370;52.596;13.112;2022-09-09T02:44:05;6.23;;;5.83;;
2724;SDS011;1370;52.596;13.112;2022-09-09T02:49:40;6.27;;;5.77;;
2724;SDS011;1370;52.596;13.112;2022-09-09T02:52:30;6.77;;;6.07;;
2724;SDS011;1370;52.596;13.112;2022-09-09T02:54:59;6.43;;;5.97;;
2724;SDS011;1370;52.596;13.112;2022-09-09T02:57:33;5.80;;;5.37;;
2724;SDS011;1370;52.596;13.112;2022-09-09T02:59:59;5.83;;;5.40;;
2724;SDS011;1370;52.596;13.112;2022-09-09T03:02:26;6.93;;;6.37;;
2724;SDS011;1370;52.596;13.112;2022-09-09T03:04:51;6.90;;;6.40;;
2724;SDS011;1370;52.596;13.112;2022-09-09T03:07:17;6.57;;;6.07;;
2724;SDS011;1370;52.596;13.112;2022-09-09T03:09:43;6.27;;;5.77;;
2724;SDS011;1370;52.596;13.112;2022-09-09T03:12:09;6.23;;;5.73;;
2724;SDS011;1370;52.596;13.112;2022-09-09T03:14:36;6.00;;;5.60;;
2724;SDS011;1370;52.596;13.112;2022-09-09T03:17:01;6.33;;;5.83;;
2724;SDS011;1370;52.596;13.112;2022-09-09T03:19:27;6.67;;;6.17;;
2724;SDS011;1370;52.596;13.112;2022-09-09T03:21:52;5.93;;;5.50;;
2724;SDS011;1370;52.596;13.112;2022-09-09T03:24:18;8.60;;;7.10;;
2724;SDS011;1370;52.596;13.112;2022-09-09T03:26:43;6.73;;;6.23;;
2724;SDS011;1370;52.596;13.112;2022-09-09T03:29:12;6.40;;;5.90;;
2724;SDS011;1370;52.596;13.112;2022-09-09T03:31:37;7.03;;;6.00;;
2724;SDS011;1370;52.596;13.112;2022-09-09T03:34:04;6.03;;;5.63;;
2724;SDS011;1370;52.596;13.112;2022-09-09T03:36:29;5.93;;;5.03;;
2724;SDS011;1370;52.596;13.112;2022-09-09T03:38:55;6.10;;;5.70;;
2724;SDS011;1370;52.596;13.112;2022-09-09T03:41:21;7.80;;;5.93;;
2724;SDS011;1370;52.596;13.112;2022-09-09T03:43:48;6.43;;;6.03;;
2724;SDS011;1370;52.596;13.112;2022-09-09T03:46:13;6.33;;;5.90;;
2724;SDS011;1370;52.596;13.112;2022-09-09T03:48:39;5.47;;;5.10;;
2724;SDS011;1370;52.596;13.112;2022-09-09T03:51:04;6.13;;;5.53;;
2724;SDS011;1370;52.596;13.112;2022-09-09T03:53:29;6.60;;;6.00;;
2724;SDS011;1370;52.596;13.112;2022-09-09T03:55:55;5.90;;;5.30;;
2724;SDS011;1370;52.596;13.112;2022-09-09T03:58:24;5.73;;;5.33;;
2724;SDS011;1370;52.596;13.112;2022-09-09T04:00:55;6.80;;;5.93;;
2724;SDS011;1370;52.596;13.112;2022-09-09T04:03:21;6.97;;;6.47;;
2724;SDS011;1370;52.596;13.112;2022-09-09T04:05:49;6.00;;;5.57;;
2724;SDS011;1370;52.596;13.112;2022-09-09T04:08:14;6.50;;;6.00;;
2724;SDS011;1370;52.596;13.112;2022-09-09T04:10:40;9.50;;;6.37;;
2724;SDS011;1370;52.596;13.112;2022-09-09T04:13:06;7.23;;;6.57;;
2724;SDS011;1370;52.596;13.112;2022-09-09T04:15:32;5.33;;;4.93;;
2724;SDS011;1370;52.596;13.112;2022-09-09T04:17:58;6.70;;;6.10;;
2724;SDS011;1370;52.596;13.112;2022-09-09T04:20:23;6.30;;;5.73;;
2724;SDS011;1370;52.596;13.112;2022-09-09T04:22:48;7.63;;;7.13;;
2724;SDS011;1370;52.596;13.112;2022-09-09T04:25:14;6.10;;;5.67;;
2724;SDS011;1370;52.596;13.112;2022-09-09T04:27:39;6.77;;;6.27;;
2724;SDS011;1370;52.596;13.112;2022-09-09T04:30:05;7.77;;;7.07;;
2724;SDS011;1370;52.596;13.112;2022-09-09T04:32:32;10.00;;;6.37;;
2724;SDS011;1370;52.596;13.112;2022-09-09T04:34:58;5.30;;;5.00;;
2724;SDS011;1370;52.596;13.112;2022-09-09T04:37:23;7.00;;;6.50;;
2724;SDS011;1370;52.596;13.112;2022-09-09T04:39:49;7.83;;;6.00;;
2724;SDS011;1370;52.596;13.112;2022-09-09T04:42:15;5.60;;;5.10;;
2724;SDS011;1370;52.596;13.112;2022-09-09T04:44:41;6.33;;;5.83;;
2724;SDS011;1370;52.596;13.112;2022-09-09T04:47:06;7.53;;;6.37;;
2724;SDS011;1370;52.596;13.112;2022-09-09T04:49:31;6.13;;;5.83;;
2724;SDS011;1370;52.596;13.112;2022-09-09T04:51:57;6.50;;;6.00;;
2724;SDS011;1370;52.596;13.112;2022-09-09T04:54:22;6.40;;;5.90;;
2724;SDS011;1370;52.596;13.112;2022-09-09T04:56:47;5.90;;;5.50;;
2724;SDS011;1370;52.596;13.112;2022-09-09T04:59:15;7.03;;;6.43;;
2724;SDS011;1370;52.596;13.112;2022-09-09T05:01:40;6.67;;;6.07;;
2724;SDS011;1370;52.596;13.112;2022-09-09T05:04:06;5.47;;;5.10;;
2724;SDS011;1370;52.596;13.112;2022-09-09T05:06:31;7.40;;;6.90;;
2724;SDS011;1370;52.596;13.112;2022-09-09T05:08:56;7.13;;;6.17;;
2724;SDS011;1370;52.596;13.112;2022-09-09T05:11:24;7.63;;;6.97;;
2724;SDS011;1370;52.596;13.112;2022-09-09T05:13:53;6.33;;;5.83;;
2724;SDS011;1370;52.596;13.112;2022-09-09T05:16:19;6.73;;;6.23;;
2724;SDS011;1370;52.596;13.112;2022-09-09T05:18:44;7.50;;;6.70;;
2724;SDS011;1370;52.596;13.112;2022-09-09T05:21:14;6.20;;;5.60;;
2724;SDS011;1370;52.596;13.112;2022-09-09T05:23:40;6.87;;;6.23;;
2724;SDS011;1370;52.596;13.112;2022-09-09T05:26:06;6.50;;;6.00;;
2724;SDS011;1370;52.596;13.112;2022-09-09T05:28:33;6.70;;;6.10;;
2724;SDS011;1370;52.596;13.112;2022-09-09T05:31:01;8.13;;;7.30;;
2724;SDS011;1370;52.596;13.112;2022-09-09T05:33:33;6.53;;;6.07;;
2724;SDS011;1370;52.596;13.112;2022-09-09T05:36:00;8.70;;;6.57;;
2724;SDS011;1370;52.596;13.112;2022-09-09T05:38:27;6.33;;;5.87;;
2724;SDS011;1370;52.596;13.112;2022-09-09T05:40:53;7.80;;;5.33;;
2724;SDS011;1370;52.596;13.112;2022-09-09T05:43:21;7.17;;;6.43;;
2724;SDS011;1370;52.596;13.112;2022-09-09T05:45:47;5.80;;;5.30;;
2724;SDS011;1370;52.596;13.112;2022-09-09T05:48:13;5.20;;;4.90;;
2724;SDS011;1370;52.596;13.112;2022-09-09T05:50:42;6.30;;;5.70;;
2724;SDS011;1370;52.596;13.112;2022-09-09T05:53:08;5.37;;;4.87;;
2724;SDS011;1370;52.596;13.112;2022-09-09T05:55:35;6.93;;;6.43;;
2724;SDS011;1370;52.596;13.112;2022-09-09T05:58:00;6.37;;;5.77;;
2724;SDS011;1370;52.596;13.112;2022-09-09T06:00:26;7.47;;;5.77;;
2724;SDS011;1370;52.596;13.112;2022-09-09T06:02:51;6.07;;;5.30;;
2724;SDS011;1370;52.596;13.112;2022-09-09T06:05:17;6.00;;;5.60;;
2724;SDS011;1370;52.596;13.112;2022-09-09T06:07:43;5.80;;;5.37;;
2724;SDS011;1370;52.596;13.112;2022-09-09T06:10:09;6.50;;;6.00;;
2724;SDS011;1370;52.596;13.112;2022-09-09T06:12:35;6.03;;;5.53;;
2724;SDS011;1370;52.596;13.112;2022-09-09T06:15:00;6.10;;;5.77;;
2724;SDS011;1370;52.596;13.112;2022-09-09T06:17:26;6.00;;;5.60;;
2724;SDS011;1370;52.596;13.112;2022-09-09T06:19:51;6.10;;;5.70;;
2724;SDS011;1370;52.596;13.112;2022-09-09T06:22:17;6.63;;;6.00;;
2724;SDS011;1370;52.596;13.112;2022-09-09T06:24:42;6.20;;;5.70;;
2724;SDS011;1370;52.596;13.112;2022-09-09T06:27:07;5.40;;;5.10;;
2724;SDS011;1370;52.596;13.112;2022-09-09T06:29:33;6.07;;;5.60;;
2724;SDS011;1370;52.596;13.112;2022-09-09T06:31:58;5.17;;;4.87;;
2724;SDS011;1370;52.596;13.112;2022-09-09T06:34:23;7.10;;;4.30;;
2724;SDS011;1370;52.596;13.112;2022-09-09T06:36:49;6.60;;;5.47;;
2724;SDS011;1370;52.596;13.112;2022-09-09T06:39:14;4.90;;;4.60;;
2724;SDS011;1370;52.596;13.112;2022-09-09T06:41:40;4.57;;;4.13;;
2724;SDS011;1370;52.596;13.112;2022-09-09T06:44:07;8.00;;;4.97;;
2724;SDS011;1370;52.596;13.112;2022-09-09T06:46:32;5.43;;;4.77;;
2724;SDS011;1370;52.596;13.112;2022-09-09T06:48:58;7.10;;;4.80;;
2724;SDS011;1370;52.596;13.112;2022-09-09T06:51:34;5.57;;;5.00;;
2724;SDS011;1370;52.596;13.112;2022-09-09T06:54:01;5.87;;;5.10;;
2724;SDS011;1370;52.596;13.112;2022-09-09T06:59:00;5.33;;;4.93;;
2724;SDS011;1370;52.596;13.112;2022-09-09T07:01:28;4.77;;;4.37;;
2724;SDS011;1370;52.596;13.112;2022-09-09T07:03:55;5.33;;;5.03;;
2724;SDS011;1370;52.596;13.112;2022-09-09T07:06:23;6.10;;;4.23;;
2724;SDS011;1370;52.596;13.112;2022-09-09T07:08:54;6.27;;;4.13;;
2724;SDS011;1370;52.596;13.112;2022-09-09T07:11:27;4.23;;;3.90;;
2724;SDS011;1370;52.596;13.112;2022-09-09T07:13:54;4.90;;;4.57;;
2724;SDS011;1370;52.596;13.112;2022-09-09T07:16:20;6.50;;;6.00;;
2724;SDS011;1370;52.596;13.112;2022-09-09T07:18:49;3.60;;;3.33;;
2724;SDS011;1370;52.596;13.112;2022-09-09T07:21:15;3.93;;;3.70;;
2724;SDS011;1370;52.596;13.112;2022-09-09T07:23:41;5.00;;;4.60;;
2724;SDS011;1370;52.596;13.112;2022-09-09T07:26:07;4.53;;;4.10;;
2724;SDS011;1370;52.596;13.112;2022-09-09T07:28:37;3.97;;;3.57;;
2724;SDS011;1370;52.596;13.112;2022-09-09T07:31:02;3.90;;;2.90;;
2724;SDS011;1370;52.596;13.112;2022-09-09T07:33:28;4.17;;;3.97;;
2724;SDS011;1370;52.596;13.112;2022-09-09T07:36:01;3.97;;;3.67;;
2724;SDS011;1370;52.596;13.112;2022-09-09T07:38:32;8.87;;;3.73;;
2724;SDS011;1370;52.596;13.112;2022-09-09T07:41:05;4.30;;;3.20;;
2724;SDS011;1370;52.596;13.112;2022-09-09T07:43:31;4.27;;;3.90;;
2724;SDS011;1370;52.596;13.112;2022-09-09T07:45:58;5.47;;;4.30;;
2724;SDS011;1370;52.596;13.112;2022-09-09T07:48:24;7.43;;;4.23;;
2724;SDS011;1370;52.596;13.112;2022-09-09T07:50:49;14.03;;;5.80;;
2724;SDS011;1370;52.596;13.112;2022-09-09T07:53:15;4.90;;;4.50;;
2724;SDS011;1370;52.596;13.112;2022-09-09T07:55:40;3.27;;;3.00;;
2724;SDS011;1370;52.596;13.112;2022-09-09T07:58:05;3.63;;;3.33;;
2724;SDS011;1370;52.596;13.112;2022-09-09T08:00:30;5.27;;;3.80;;
2724;SDS011;1370;52.596;13.112;2022-09-09T08:02:58;4.33;;;4.03;;
2724;SDS011;1370;52.596;13.112;2022-09-09T08:05:23;6.03;;;4.27;;
2724;SDS011;1370;52.596;13.112;2022-09-09T08:07:48;3.37;;;3.07;;
2724;SDS011;1370;52.596;13.112;2022-09-09T08:10:15;3.33;;;3.03;;
2724;SDS011;1370;52.596;13.112;2022-09-09T08:12:40;8.93;;;3.43;;
2724;SDS011;1370;52.596;13.112;2022-09-09T08:15:06;3.60;;;3.30;;
2724;SDS011;1370;52.596;13.112;2022-09-09T08:17:31;6.27;;;4.30;;
2724;SDS011;1370;52.596;13.112;2022-09-09T08:19:57;4.87;;;3.07;;
2724;SDS011;1370;52.596;13.112;2022-09-09T08:22:23;4.20;;;3.17;;
2724;SDS011;1370;52.596;13.112;2022-09-09T08:24:49;3.77;;;3.33;;
2724;SDS011;1370;52.596;13.112;2022-09-09T08:27:14;4.83;;;3.10;;
2724;SDS011;1370;52.596;13.112;2022-09-09T08:29:40;4.27;;;2.80;;
2724;SDS011;1370;52.596;13.112;2022-09-09T08:32:05;5.87;;;3.23;;
2724;SDS011;1370;52.596;13.112;2022-09-09T08:34:30;3.27;;;2.97;;
2724;SDS011;1370;52.596;13.112;2022-09-09T08:36:56;4.10;;;2.40;;
2724;SDS011;1370;52.596;13.112;2022-09-09T08:39:22;5.43;;;2.70;;
2724;SDS011;1370;52.596;13.112;2022-09-09T08:42:00;4.73;;;2.60;;
2724;SDS011;1370;52.596;13.112;2022-09-09T08:44:49;3.90;;;3.60;;
2724;SDS011;1370;52.596;13.112;2022-09-09T08:47:29;2.33;;;2.13;;
2724;SDS011;1370;52.596;13.112;2022-09-09T08:50:05;3.07;;;2.87;;
2724;SDS011;1370;52.596;13.112;2022-09-09T08:55:41;3.43;;;2.53;;
2724;SDS011;1370;52.596;13.112;2022-09-09T08:58:16;5.70;;;2.60;;
2724;SDS011;1370;52.596;13.112;2022-09-09T09:01:05;4.67;;;3.03;;
2724;SDS011;1370;52.596;13.112;2022-09-09T09:03:55;2.67;;;2.47;;
2724;SDS011;1370;52.596;13.112;2022-09-09T09:06:31;3.63;;;2.90;;
2724;SDS011;1370;52.596;13.112;2022-09-09T09:09:11;4.70;;;2.97;;
2724;SDS011;1370;52.596;13.112;2022-09-09T09:11:55;4.60;;;2.37;;
2724;SDS011;1370;52.596;13.112;2022-09-09T09:14:26;5.13;;;2.70;;
2724;SDS011;1370;52.596;13.112;2022-09-09T09:19:29;3.00;;;1.87;;
2724;SDS011;1370;52.596;13.112;2022-09-09T09:24:54;3.17;;;2.30;;
2724;SDS011;1370;52.596;13.112;2022-09-09T09:30:25;1.97;;;1.57;;
2724;SDS011;1370;52.596;13.112;2022-09-09T09:32:59;3.97;;;2.03;;
2724;SDS011;1370;52.596;13.112;2022-09-09T09:35:26;4.40;;;2.80;;
2724;SDS011;1370;52.596;13.112;2022-09-09T09:37:51;2.50;;;2.30;;
2724;SDS011;1370;52.596;13.112;2022-09-09T09:40:18;6.70;;;3.20;;
2724;SDS011;1370;52.596;13.112;2022-09-09T09:42:55;3.87;;;2.67;;
2724;SDS011;1370;52.596;13.112;2022-09-09T09:45:26;4.03;;;2.50;;
2724;SDS011;1370;52.596;13.112;2022-09-09T09:47:59;3.07;;;2.30;;
2724;SDS011;1370;52.596;13.112;2022-09-09T09:50:27;2.43;;;1.90;;
2724;SDS011;1370;52.596;13.112;2022-09-09T09:52:56;4.53;;;2.10;;
2724;SDS011;1370;52.596;13.112;2022-09-09T09:55:23;5.73;;;2.00;;
2724;SDS011;1370;52.596;13.112;2022-09-09T09:57:49;2.27;;;2.07;;
2724;SDS011;1370;52.596;13.112;2022-09-09T10:02:42;2.47;;;2.27;;
2724;SDS011;1370;52.596;13.112;2022-09-09T10:05:13;3.70;;;2.00;;
2724;SDS011;1370;52.596;13.112;2022-09-09T10:07:39;3.07;;;2.73;;
2724;SDS011;1370;52.596;13.112;2022-09-09T10:10:05;2.90;;;2.27;;
2724;SDS011;1370;52.596;13.112;2022-09-09T10:12:49;4.10;;;1.90;;
2724;SDS011;1370;52.596;13.112;2022-09-09T10:32:33;2.77;;;2.50;;
2724;SDS011;1370;52.596;13.112;2022-09-09T10:38:12;5.83;;;2.30;;
2724;SDS011;1370;52.596;13.112;2022-09-09T10:43:45;3.93;;;2.00;;
2724;SDS011;1370;52.596;13.112;2022-09-09T10:49:26;2.73;;;1.80;;
2724;SDS011;1370;52.596;13.112;2022-09-09T11:00:01;6.00;;;2.10;;
2724;SDS011;1370;52.596;13.112;2022-09-09T11:02:30;18.87;;;11.07;;
2724;SDS011;1370;52.596;13.112;2022-09-09T11:07:49;1.67;;;1.50;;
2724;SDS011;1370;52.596;13.112;2022-09-09T11:12:50;4.03;;;1.77;;
2724;SDS011;1370;52.596;13.112;2022-09-09T11:15:20;2.97;;;2.20;;
2724;SDS011;1370;52.596;13.112;2022-09-09T11:17:52;4.13;;;1.90;;
2724;SDS011;1370;52.596;13.112;2022-09-09T11:20:19;3.30;;;1.77;;
2724;SDS011;1370;52.596;13.112;2022-09-09T11:22:46;2.33;;;1.40;;
2724;SDS011;1370;52.596;13.112;2022-09-09T11:25:18;4.40;;;1.70;;
2724;SDS011;1370;52.596;13.112;2022-09-09T11:28:05;1.90;;;1.50;;
2724;SDS011;1370;52.596;13.112;2022-09-09T11:42:04;5.93;;;2.33;;
2724;SDS011;1370;52.596;13.112;2022-09-09T11:44:31;2.37;;;1.20;;
2724;SDS011;1370;52.596;13.112;2022-09-09T11:46:57;2.17;;;1.33;;
2724;SDS011;1370;52.596;13.112;2022-09-09T11:49:43;9.90;;;1.90;;
2724;SDS011;1370;52.596;13.112;2022-09-09T11:52:12;2.87;;;2.60;;
2724;SDS011;1370;52.596;13.112;2022-09-09T11:54:47;4.40;;;1.57;;
2724;SDS011;1370;52.596;13.112;2022-09-09T11:57:35;1.87;;;1.50;;
2724;SDS011;1370;52.596;13.112;2022-09-09T12:00:00;2.80;;;1.60;;
2724;SDS011;1370;52.596;13.112;2022-09-09T12:02:26;3.70;;;1.70;;
2724;SDS011;1370;52.596;13.112;2022-09-09T12:05:00;3.90;;;1.90;;
2724;SDS011;1370;52.596;13.112;2022-09-09T12:08:16;2.17;;;1.90;;
2724;SDS011;1370;52.596;13.112;2022-09-09T12:10:23;1.83;;;1.67;;
2724;SDS011;1370;52.596;13.112;2022-09-09T12:12:51;3.13;;;1.53;;
2724;SDS011;1370;52.596;13.112;2022-09-09T12:15:27;3.30;;;1.87;;
2724;SDS011;1370;52.596;13.112;2022-09-09T12:17:54;3.37;;;1.70;;
2724;SDS011;1370;52.596;13.112;2022-09-09T12:20:34;4.37;;;1.47;;
2724;SDS011;1370;52.596;13.112;2022-09-09T12:23:12;4.27;;;2.03;;
2724;SDS011;1370;52.596;13.112;2022-09-09T12:25:47;3.60;;;1.80;;
2724;SDS011;1370;52.596;13.112;2022-09-09T12:28:18;1.90;;;1.50;;
2724;SDS011;1370;52.596;13.112;2022-09-09T12:33:42;2.83;;;1.80;;
2724;SDS011;1370;52.596;13.112;2022-09-09T12:36:12;2.33;;;1.43;;
2724;SDS011;1370;52.596;13.112;2022-09-09T12:38:41;3.93;;;1.87;;
2724;SDS011;1370;52.596;13.112;2022-09-09T12:41:23;5.43;;;1.80;;
2724;SDS011;1370;52.596;13.112;2022-09-09T12:43:50;2.93;;;1.63;;
2724;SDS011;1370;52.596;13.112;2022-09-09T12:46:37;2.10;;;1.43;;
2724;SDS011;1370;52.596;13.112;2022-09-09T12:49:03;3.33;;;1.40;;
2724;SDS011;1370;52.596;13.112;2022-09-09T12:51:30;4.17;;;1.30;;
2724;SDS011;1370;52.596;13.112;2022-09-09T12:53:56;3.30;;;1.77;;
2724;SDS011;1370;52.596;13.112;2022-09-09T12:56:24;16.13;;;12.90;;
2724;SDS011;1370;52.596;13.112;2022-09-09T12:58:54;24.30;;;21.80;;
2724;SDS011;1370;52.596;13.112;2022-09-09T13:01:22;2.30;;;2.10;;
2724;SDS011;1370;52.596;13.112;2022-09-09T13:03:49;10.07;;;6.90;;
2724;SDS011;1370;52.596;13.112;2022-09-09T13:06:24;5.00;;;4.50;;
2724;SDS011;1370;52.596;13.112;2022-09-09T13:08:51;5.73;;;3.07;;
2724;SDS011;1370;52.596;13.112;2022-09-09T13:11:22;4.80;;;2.17;;
2724;SDS011;1370;52.596;13.112;2022-09-09T13:13:50;2.70;;;2.50;;
2724;SDS011;1370;52.596;13.112;2022-09-09T13:16:20;3.87;;;2.23;;
2724;SDS011;1370;52.596;13.112;2022-09-09T13:18:48;4.97;;;2.70;;
2724;SDS011;1370;52.596;13.112;2022-09-09T13:21:14;4.97;;;4.53;;
2724;SDS011;1370;52.596;13.112;2022-09-09T13:23:40;5.83;;;1.87;;
2724;SDS011;1370;52.596;13.112;2022-09-09T13:26:21;9.63;;;2.10;;
2724;SDS011;1370;52.596;13.112;2022-09-09T13:28:51;3.63;;;1.23;;
2724;SDS011;1370;52.596;13.112;2022-09-09T13:33:56;2.30;;;1.53;;
2724;SDS011;1370;52.596;13.112;2022-09-09T13:36:29;2.00;;;1.57;;
2724;SDS011;1370;52.596;13.112;2022-09-09T13:38:56;2.93;;;1.90;;
2724;SDS011;1370;52.596;13.112;2022-09-09T13:41:22;2.67;;;1.60;;
2724;SDS011;1370;52.596;13.112;2022-09-09T13:43:58;2.47;;;2.00;;
2724;SDS011;1370;52.596;13.112;2022-09-09T13:46:25;2.57;;;1.50;;
2724;SDS011;1370;52.596;13.112;2022-09-09T13:48:55;3.63;;;1.80;;
2724;SDS011;1370;52.596;13.112;2022-09-09T13:51:26;6.70;;;2.83;;
2724;SDS011;1370;52.596;13.112;2022-09-09T13:53:54;1.67;;;1.10;;
2724;SDS011;1370;52.596;13.112;2022-09-09T13:56:20;8.10;;;1.87;;
2724;SDS011;1370;52.596;13.112;2022-09-09T13:58:45;4.63;;;3.53;;
2724;SDS011;1370;52.596;13.112;2022-09-09T14:01:10;2.87;;;1.40;;
2724;SDS011;1370;52.596;13.112;2022-09-09T14:03:36;1.80;;;1.47;;
2724;SDS011;1370;52.596;13.112;2022-09-09T14:06:02;3.07;;;1.33;;
2724;SDS011;1370;52.596;13.112;2022-09-09T14:08:27;2.90;;;1.50;;
2724;SDS011;1370;52.596;13.112;2022-09-09T14:11:01;4.77;;;1.90;;
2724;SDS011;1370;52.596;13.112;2022-09-09T14:13:27;4.17;;;1.60;;
2724;SDS011;1370;52.596;13.112;2022-09-09T14:15:52;2.20;;;1.27;;
2724;SDS011;1370;52.596;13.112;2022-09-09T14:18:17;3.80;;;1.60;;
2724;SDS011;1370;52.596;13.112;2022-09-09T14:20:43;5.60;;;2.00;;
2724;SDS011;1370;52.596;13.112;2022-09-09T14:23:09;2.53;;;1.47;;
2724;SDS011;1370;52.596;13.112;2022-09-09T14:25:36;4.40;;;1.70;;
2724;SDS011;1370;52.596;13.112;2022-09-09T14:28:01;5.40;;;1.37;;
2724;SDS011;1370;52.596;13.112;2022-09-09T14:30:27;3.17;;;2.27;;
2724;SDS011;1370;52.596;13.112;2022-09-09T14:32:52;2.43;;;2.13;;
2724;SDS011;1370;52.596;13.112;2022-09-09T14:35:17;2.37;;;1.20;;
2724;SDS011;1370;52.596;13.112;2022-09-09T14:37:43;4.20;;;1.57;;
2724;SDS011;1370;52.596;13.112;2022-09-09T14:40:09;2.90;;;1.63;;
2724;SDS011;1370;52.596;13.112;2022-09-09T14:42:36;2.87;;;1.30;;
2724;SDS011;1370;52.596;13.112;2022-09-09T14:45:01;3.03;;;1.50;;
2724;SDS011;1370;52.596;13.112;2022-09-09T14:47:27;3.80;;;1.27;;
2724;SDS011;1370;52.596;13.112;2022-09-09T14:49:52;2.57;;;1.23;;
2724;SDS011;1370;52.596;13.112;2022-09-09T14:52:18;2.23;;;1.33;;
2724;SDS011;1370;52.596;13.112;2022-09-09T14:54:43;4.07;;;1.43;;
2724;SDS011;1370;52.596;13.112;2022-09-09T14:57:08;2.00;;;1.40;;
2724;SDS011;1370;52.596;13.112;2022-09-09T14:59:34;2.60;;;1.30;;
2724;SDS011;1370;52.596;13.112;2022-09-09T15:01:59;2.90;;;1.77;;
2724;SDS011;1370;52.596;13.112;2022-09-09T15:04:28;5.33;;;1.50;;
2724;SDS011;1370;52.596;13.112;2022-09-09T15:06:54;2.93;;;1.90;;
2724;SDS011;1370;52.596;13.112;2022-09-09T15:09:19;5.57;;;1.37;;
2724;SDS011;1370;52.596;13.112;2022-09-09T15:11:45;3.10;;;1.77;;
2724;SDS011;1370;52.596;13.112;2022-09-09T15:14:10;4.57;;;1.90;;
2724;SDS011;1370;52.596;13.112;2022-09-09T15:16:37;2.33;;;1.20;;
2724;SDS011;1370;52.596;13.112;2022-09-09T15:19:03;1.90;;;0.93;;
2724;SDS011;1370;52.596;13.112;2022-09-09T15:21:30;3.80;;;1.67;;
2724;SDS011;1370;52.596;13.112;2022-09-09T15:23:57;3.47;;;1.27;;
2724;SDS011;1370;52.596;13.112;2022-09-09T15:26:22;2.77;;;1.10;;
2724;SDS011;1370;52.596;13.112;2022-09-09T15:28:48;4.13;;;1.60;;
2724;SDS011;1370;52.596;13.112;2022-09-09T15:31:19;2.93;;;1.37;;
2724;SDS011;1370;52.596;13.112;2022-09-09T15:33:58;5.23;;;1.47;;
2724;SDS011;1370;52.596;13.112;2022-09-09T15:38:54;3.83;;;1.50;;
2724;SDS011;1370;52.596;13.112;2022-09-09T15:41:21;2.43;;;1.50;;
2724;SDS011;1370;52.596;13.112;2022-09-09T15:43:48;2.17;;;1.13;;
2724;SDS011;1370;52.596;13.112;2022-09-09T15:46:34;3.80;;;1.00;;
2724;SDS011;1370;52.596;13.112;2022-09-09T15:49:10;2.13;;;1.10;;
2724;SDS011;1370;52.596;13.112;2022-09-09T15:51:38;4.37;;;1.50;;
2724;SDS011;1370;52.596;13.112;2022-09-09T15:54:05;3.47;;;1.20;;
2724;SDS011;1370;52.596;13.112;2022-09-09T15:56:30;3.30;;;2.67;;
2724;SDS011;1370;52.596;13.112;2022-09-09T15:58:56;3.23;;;1.40;;
2724;SDS011;1370;52.596;13.112;2022-09-09T16:01:22;2.60;;;1.50;;
2724;SDS011;1370;52.596;13.112;2022-09-09T16:03:48;3.47;;;2.23;;
2724;SDS011;1370;52.596;13.112;2022-09-09T16:06:15;6.87;;;2.10;;
2724;SDS011;1370;52.596;13.112;2022-09-09T16:08:42;10.20;;;1.60;;
2724;SDS011;1370;52.596;13.112;2022-09-09T16:11:09;2.57;;;1.90;;
2724;SDS011;1370;52.596;13.112;2022-09-09T16:13:37;6.40;;;1.60;;
2724;SDS011;1370;52.596;13.112;2022-09-09T16:16:02;4.20;;;1.57;;
2724;SDS011;1370;52.596;13.112;2022-09-09T16:18:38;7.83;;;2.10;;
2724;SDS011;1370;52.596;13.112;2022-09-09T16:21:06;3.83;;;1.83;;
2724;SDS011;1370;52.596;13.112;2022-09-09T16:23:33;3.50;;;2.33;;
2724;SDS011;1370;52.596;13.112;2022-09-09T16:25:58;6.90;;;1.70;;
2724;SDS011;1370;52.596;13.112;2022-09-09T16:28:24;1.60;;;1.30;;
2724;SDS011;1370;52.596;13.112;2022-09-09T16:30:49;3.30;;;2.23;;
2724;SDS011;1370;52.596;13.112;2022-09-09T16:33:15;4.90;;;2.97;;
2724;SDS011;1370;52.596;13.112;2022-09-09T16:35:41;4.17;;;2.10;;
2724;SDS011;1370;52.596;13.112;2022-09-09T16:38:06;4.43;;;1.90;;
2724;SDS011;1370;52.596;13.112;2022-09-09T16:40:34;2.43;;;2.00;;
2724;SDS011;1370;52.596;13.112;2022-09-09T16:43:00;2.17;;;1.97;;
2724;SDS011;1370;52.596;13.112;2022-09-09T16:45:26;4.00;;;3.20;;
2724;SDS011;1370;52.596;13.112;2022-09-09T16:47:51;6.33;;;2.97;;
2724;SDS011;1370;52.596;13.112;2022-09-09T16:50:16;8.03;;;3.43;;
2724;SDS011;1370;52.596;13.112;2022-09-09T16:52:42;4.00;;;3.50;;
2724;SDS011;1370;52.596;13.112;2022-09-09T16:55:07;7.57;;;6.67;;
2724;SDS011;1370;52.596;13.112;2022-09-09T16:57:34;5.60;;;5.07;;
2724;SDS011;1370;52.596;13.112;2022-09-09T16:59:59;5.07;;;4.10;;
2724;SDS011;1370;52.596;13.112;2022-09-09T17:02:25;7.93;;;2.77;;